Terminal Aerodrome Forecast
Issued by NWS Medford, OR

Home | Current Version | Previous Version | Text Only | Print | Product List | Glossary On
Versions: 1 2 3 4 5 6 7 8 9 10 11 12
000
FTUS46 KMFR 202320
TAFMFR
TAF
KMFR 202320Z 2100/2124 32008KT P6SM SKC
     FM210300 VRB03KT P6SM SKC
     FM212200 32010KT P6SM BKN040=

USA.gov is the U.S. government's official web portal to all federal, state and local government web resources and services.